sensor_id;sensor_type;location;lat;lon;timestamp;pressure;altitude;pressure_sealevel;temperature;humidity
49949;BME280;35840;45.982;8.890;2023-11-21T00:02:21;97816.53;;;7.28;97.91
49949;BME280;35840;45.982;8.890;2023-11-21T00:04:50;97807.31;;;7.26;97.59
49949;BME280;35840;45.982;8.890;2023-11-21T00:07:17;97802.84;;;7.29;97.53
49949;BME280;35840;45.982;8.890;2023-11-21T00:09:43;97806.00;;;7.34;97.06
49949;BME280;35840;45.982;8.890;2023-11-21T00:12:10;97807.69;;;7.34;96.96
49949;BME280;35840;45.982;8.890;2023-11-21T00:14:37;97797.56;;;7.32;96.20
49949;BME280;35840;45.982;8.890;2023-11-21T00:17:05;97800.47;;;7.26;97.78
49949;BME280;35840;45.982;8.890;2023-11-21T00:19:32;97801.31;;;7.11;99.34
49949;BME280;35840;45.982;8.890;2023-11-21T00:22:01;97786.25;;;7.06;98.68
49949;BME280;35840;45.982;8.890;2023-11-21T00:24:28;97785.81;;;7.14;98.33
49949;BME280;35840;45.982;8.890;2023-11-21T00:26:55;97808.16;;;7.26;98.17
49949;BME280;35840;45.982;8.890;2023-11-21T00:29:23;97801.94;;;7.30;97.64
49949;BME280;35840;45.982;8.890;2023-11-21T00:31:50;97800.94;;;7.33;96.87
49949;BME280;35840;45.982;8.890;2023-11-21T00:34:17;97794.75;;;7.37;96.64
49949;BME280;35840;45.982;8.890;2023-11-21T00:36:44;97806.53;;;7.39;96.03
49949;BME280;35840;45.982;8.890;2023-11-21T00:39:11;97785.53;;;7.34;96.45
49949;BME280;35840;45.982;8.890;2023-11-21T00:41:39;97796.41;;;7.38;96.93
49949;BME280;35840;45.982;8.890;2023-11-21T00:44:06;97780.56;;;7.31;95.89
49949;BME280;35840;45.982;8.890;2023-11-21T00:46:33;97786.16;;;7.38;95.79
49949;BME280;35840;45.982;8.890;2023-11-21T00:49:00;97783.38;;;7.27;97.08
49949;BME280;35840;45.982;8.890;2023-11-21T00:51:27;97777.88;;;7.18;97.77
49949;BME280;35840;45.982;8.890;2023-11-21T00:53:53;97767.03;;;7.15;98.31
49949;BME280;35840;45.982;8.890;2023-11-21T00:56:20;97778.88;;;7.16;97.70
49949;BME280;35840;45.982;8.890;2023-11-21T00:58:47;97780.81;;;6.96;99.67
49949;BME280;35840;45.982;8.890;2023-11-21T01:01:16;97783.03;;;7.02;98.94
49949;BME280;35840;45.982;8.890;2023-11-21T01:03:46;97791.28;;;7.07;98.43
49949;BME280;35840;45.982;8.890;2023-11-21T01:06:13;97775.34;;;7.02;98.69
49949;BME280;35840;45.982;8.890;2023-11-21T01:08:42;97774.09;;;7.10;98.98
49949;BME280;35840;45.982;8.890;2023-11-21T01:11:09;97778.97;;;7.14;98.38
49949;BME280;35840;45.982;8.890;2023-11-21T01:13:39;97776.25;;;7.17;97.73
49949;BME280;35840;45.982;8.890;2023-11-21T01:16:07;97775.75;;;7.11;98.17
49949;BME280;35840;45.982;8.890;2023-11-21T01:18:34;97780.47;;;7.02;98.33
49949;BME280;35840;45.982;8.890;2023-11-21T01:21:01;97778.09;;;6.99;98.54
49949;BME280;35840;45.982;8.890;2023-11-21T01:23:28;97765.31;;;6.99;98.48
49949;BME280;35840;45.982;8.890;2023-11-21T01:25:58;97769.66;;;6.97;97.65
49949;BME280;35840;45.982;8.890;2023-11-21T01:28:24;97747.59;;;6.96;97.41
49949;BME280;35840;45.982;8.890;2023-11-21T01:30:51;97755.41;;;7.09;96.92
49949;BME280;35840;45.982;8.890;2023-11-21T01:33:18;97755.41;;;7.09;96.59
49949;BME280;35840;45.982;8.890;2023-11-21T01:35:45;97745.91;;;7.11;96.54
49949;BME280;35840;45.982;8.890;2023-11-21T01:38:13;97744.91;;;7.14;96.50
49949;BME280;35840;45.982;8.890;2023-11-21T01:40:41;97751.59;;;7.16;96.59
49949;BME280;35840;45.982;8.890;2023-11-21T01:43:08;97747.09;;;7.20;96.20
49949;BME280;35840;45.982;8.890;2023-11-21T01:45:35;97712.19;;;7.04;95.69
49949;BME280;35840;45.982;8.890;2023-11-21T01:48:03;97739.22;;;7.24;95.79
49949;BME280;35840;45.982;8.890;2023-11-21T01:50:30;97744.81;;;7.15;96.67
49949;BME280;35840;45.982;8.890;2023-11-21T01:52:57;97726.31;;;7.12;97.59
49949;BME280;35840;45.982;8.890;2023-11-21T01:55:24;97732.72;;;7.19;97.61
49949;BME280;35840;45.982;8.890;2023-11-21T01:57:56;97740.00;;;7.25;96.70
49949;BME280;35840;45.982;8.890;2023-11-21T02:00:26;97716.19;;;7.24;96.87
49949;BME280;35840;45.982;8.890;2023-11-21T02:02:55;97721.53;;;7.20;96.85
49949;BME280;35840;45.982;8.890;2023-11-21T02:05:22;97724.50;;;6.98;99.23
49949;BME280;35840;45.982;8.890;2023-11-21T02:07:49;97740.84;;;6.95;99.99
49949;BME280;35840;45.982;8.890;2023-11-21T02:10:16;97741.06;;;7.06;99.77
49949;BME280;35840;45.982;8.890;2023-11-21T02:12:44;97736.25;;;7.16;99.04
49949;BME280;35840;45.982;8.890;2023-11-21T02:15:14;97745.13;;;7.25;98.07
49949;BME280;35840;45.982;8.890;2023-11-21T02:17:48;97742.47;;;7.27;97.26
49949;BME280;35840;45.982;8.890;2023-11-21T02:20:20;97733.72;;;7.31;96.45
49949;BME280;35840;45.982;8.890;2023-11-21T02:22:58;97736.88;;;7.20;95.59
49949;BME280;35840;45.982;8.890;2023-11-21T02:25:30;97737.16;;;7.15;95.92
49949;BME280;35840;45.982;8.890;2023-11-21T02:28:00;97725.19;;;7.16;96.27
49949;BME280;35840;45.982;8.890;2023-11-21T02:30:27;97715.69;;;7.03;96.91
49949;BME280;35840;45.982;8.890;2023-11-21T02:32:55;97722.78;;;6.98;98.31
49949;BME280;35840;45.982;8.890;2023-11-21T02:35:24;97709.63;;;7.04;98.05
49949;BME280;35840;45.982;8.890;2023-11-21T02:37:54;97712.03;;;7.07;97.35
49949;BME280;35840;45.982;8.890;2023-11-21T02:40:22;97712.34;;;7.17;96.55
49949;BME280;35840;45.982;8.890;2023-11-21T02:42:51;97719.84;;;7.20;96.41
49949;BME280;35840;45.982;8.890;2023-11-21T02:45:19;97713.25;;;7.16;95.99
49949;BME280;35840;45.982;8.890;2023-11-21T02:47:51;97706.66;;;7.12;96.81
49949;BME280;35840;45.982;8.890;2023-11-21T02:50:20;97699.28;;;6.92;95.94
49949;BME280;35840;45.982;8.890;2023-11-21T02:52:50;97692.56;;;6.91;96.46
49949;BME280;35840;45.982;8.890;2023-11-21T02:55:17;97698.69;;;7.02;96.12
49949;BME280;35840;45.982;8.890;2023-11-21T02:57:45;97699.25;;;7.07;95.41
49949;BME280;35840;45.982;8.890;2023-11-21T03:00:12;97699.34;;;7.06;95.81
49949;BME280;35840;45.982;8.890;2023-11-21T03:02:41;97697.91;;;6.86;96.94
49949;BME280;35840;45.982;8.890;2023-11-21T03:05:09;97703.00;;;6.86;96.60
49949;BME280;35840;45.982;8.890;2023-11-21T03:07:37;97711.91;;;6.95;96.66
49949;BME280;35840;45.982;8.890;2023-11-21T03:10:06;97700.09;;;6.78;97.96
49949;BME280;35840;45.982;8.890;2023-11-21T03:12:33;97703.03;;;6.70;99.10
49949;BME280;35840;45.982;8.890;2023-11-21T03:15:00;97705.00;;;6.81;98.64
49949;BME280;35840;45.982;8.890;2023-11-21T03:17:28;97680.50;;;6.93;97.81
49949;BME280;35840;45.982;8.890;2023-11-21T03:19:55;97683.41;;;6.86;97.14
49949;BME280;35840;45.982;8.890;2023-11-21T03:22:23;97688.47;;;7.02;97.08
49949;BME280;35840;45.982;8.890;2023-11-21T03:24:50;97691.28;;;6.98;96.87
49949;BME280;35840;45.982;8.890;2023-11-21T03:27:17;97707.56;;;6.81;97.70
49949;BME280;35840;45.982;8.890;2023-11-21T03:29:44;97716.63;;;6.70;98.73
49949;BME280;35840;45.982;8.890;2023-11-21T03:32:13;97701.06;;;6.75;98.65
49949;BME280;35840;45.982;8.890;2023-11-21T03:34:58;97701.22;;;6.88;97.91
49949;BME280;35840;45.982;8.890;2023-11-21T03:37:26;97688.34;;;6.89;97.66
49949;BME280;35840;45.982;8.890;2023-11-21T03:39:57;97695.31;;;7.02;96.37
49949;BME280;35840;45.982;8.890;2023-11-21T03:42:25;97687.97;;;6.96;96.18
49949;BME280;35840;45.982;8.890;2023-11-21T03:44:54;97692.84;;;7.00;96.11
49949;BME280;35840;45.982;8.890;2023-11-21T03:47:21;97691.94;;;7.01;95.83
49949;BME280;35840;45.982;8.890;2023-11-21T03:49:48;97699.28;;;6.92;95.86
49949;BME280;35840;45.982;8.890;2023-11-21T03:52:16;97696.50;;;6.96;95.73
49949;BME280;35840;45.982;8.890;2023-11-21T03:54:43;97693.09;;;6.96;95.45
49949;BME280;35840;45.982;8.890;2023-11-21T03:57:12;97697.88;;;7.02;94.59
49949;BME280;35840;45.982;8.890;2023-11-21T03:59:43;97695.75;;;6.94;94.22
49949;BME280;35840;45.982;8.890;2023-11-21T04:02:09;97711.25;;;6.91;93.88
49949;BME280;35840;45.982;8.890;2023-11-21T04:04:36;97698.56;;;6.89;93.89
49949;BME280;35840;45.982;8.890;2023-11-21T04:07:04;97699.25;;;6.77;94.04
49949;BME280;35840;45.982;8.890;2023-11-21T04:09:31;97707.06;;;6.74;94.30
49949;BME280;35840;45.982;8.890;2023-11-21T04:11:58;97706.75;;;6.64;94.05
49949;BME280;35840;45.982;8.890;2023-11-21T04:14:24;97705.59;;;6.70;94.51
49949;BME280;35840;45.982;8.890;2023-11-21T04:16:51;97696.81;;;6.60;94.63
49949;BME280;35840;45.982;8.890;2023-11-21T04:19:18;97694.16;;;6.61;95.55
49949;BME280;35840;45.982;8.890;2023-11-21T04:21:45;97690.88;;;6.59;95.45
49949;BME280;35840;45.982;8.890;2023-11-21T04:24:12;97689.16;;;6.60;95.47
49949;BME280;35840;45.982;8.890;2023-11-21T04:26:39;97673.09;;;6.42;95.42
49949;BME280;35840;45.982;8.890;2023-11-21T04:29:06;97689.63;;;6.50;95.22
49949;BME280;35840;45.982;8.890;2023-11-21T04:31:32;97690.31;;;6.54;94.94
49949;BME280;35840;45.982;8.890;2023-11-21T04:33:59;97697.38;;;6.49;94.79
49949;BME280;35840;45.982;8.890;2023-11-21T04:36:26;97691.53;;;6.47;95.02
49949;BME280;35840;45.982;8.890;2023-11-21T04:38:53;97695.81;;;6.30;95.10
49949;BME280;35840;45.982;8.890;2023-11-21T04:41:19;97697.16;;;6.22;95.31
49949;BME280;35840;45.982;8.890;2023-11-21T04:43:46;97692.72;;;6.25;95.75
49949;BME280;35840;45.982;8.890;2023-11-21T04:46:13;97689.41;;;6.23;96.20
49949;BME280;35840;45.982;8.890;2023-11-21T04:48:40;97693.66;;;6.07;97.31
49949;BME280;35840;45.982;8.890;2023-11-21T04:51:07;97685.72;;;5.79;97.79
49949;BME280;35840;45.982;8.890;2023-11-21T04:53:34;97702.41;;;5.85;98.42
49949;BME280;35840;45.982;8.890;2023-11-21T04:56:01;97707.56;;;6.01;97.24
49949;BME280;35840;45.982;8.890;2023-11-21T04:58:29;97708.09;;;6.08;96.75
49949;BME280;35840;45.982;8.890;2023-11-21T05:00:57;97706.28;;;6.10;96.34
49949;BME280;35840;45.982;8.890;2023-11-21T05:03:24;97717.41;;;6.25;95.75
49949;BME280;35840;45.982;8.890;2023-11-21T05:05:51;97711.47;;;6.24;95.00
49949;BME280;35840;45.982;8.890;2023-11-21T05:08:18;97702.81;;;6.11;95.21
49949;BME280;35840;45.982;8.890;2023-11-21T05:10:46;97710.34;;;6.14;95.54
49949;BME280;35840;45.982;8.890;2023-11-21T05:13:14;97700.44;;;6.08;95.53
49949;BME280;35840;45.982;8.890;2023-11-21T05:15:44;97701.28;;;6.08;95.23
49949;BME280;35840;45.982;8.890;2023-11-21T05:18:11;97702.16;;;6.07;95.20
49949;BME280;35840;45.982;8.890;2023-11-21T05:20:40;97697.44;;;5.99;95.53
49949;BME280;35840;45.982;8.890;2023-11-21T05:23:07;97706.31;;;5.92;94.98
49949;BME280;35840;45.982;8.890;2023-11-21T05:25:34;97698.09;;;5.87;95.00
49949;BME280;35840;45.982;8.890;2023-11-21T05:28:06;97701.19;;;5.92;95.13
49949;BME280;35840;45.982;8.890;2023-11-21T05:30:33;97687.19;;;5.83;95.04
49949;BME280;35840;45.982;8.890;2023-11-21T05:33:00;97701.66;;;6.00;94.08
49949;BME280;35840;45.982;8.890;2023-11-21T05:35:26;97711.41;;;5.92;93.18
49949;BME280;35840;45.982;8.890;2023-11-21T05:37:53;97716.06;;;6.01;92.96
49949;BME280;35840;45.982;8.890;2023-11-21T05:40:20;97698.22;;;6.01;92.04
49949;BME280;35840;45.982;8.890;2023-11-21T05:42:49;97706.38;;;6.08;91.87
49949;BME280;35840;45.982;8.890;2023-11-21T05:45:18;97705.53;;;6.08;91.25
49949;BME280;35840;45.982;8.890;2023-11-21T05:47:45;97712.69;;;6.01;90.50
49949;BME280;35840;45.982;8.890;2023-11-21T05:50:15;97704.16;;;5.84;90.09
49949;BME280;35840;45.982;8.890;2023-11-21T05:52:44;97712.34;;;5.74;89.98
49949;BME280;35840;45.982;8.890;2023-11-21T05:55:11;97710.13;;;5.67;91.18
49949;BME280;35840;45.982;8.890;2023-11-21T05:57:39;97717.06;;;5.81;90.51
49949;BME280;35840;45.982;8.890;2023-11-21T06:00:08;97701.72;;;5.65;90.87
49949;BME280;35840;45.982;8.890;2023-11-21T06:02:44;97720.63;;;5.61;91.56
49949;BME280;35840;45.982;8.890;2023-11-21T06:05:11;97723.25;;;5.60;91.91
49949;BME280;35840;45.982;8.890;2023-11-21T06:07:38;97706.03;;;5.47;91.10
49949;BME280;35840;45.982;8.890;2023-11-21T06:10:07;97729.00;;;5.47;90.67
49949;BME280;35840;45.982;8.890;2023-11-21T06:12:39;97737.22;;;5.52;91.06
49949;BME280;35840;45.982;8.890;2023-11-21T06:15:07;97740.53;;;5.55;90.89
49949;BME280;35840;45.982;8.890;2023-11-21T06:17:36;97738.78;;;5.55;90.49
49949;BME280;35840;45.982;8.890;2023-11-21T06:20:04;97737.97;;;5.37;92.13
49949;BME280;35840;45.982;8.890;2023-11-21T06:22:40;97740.28;;;5.24;93.60
49949;BME280;35840;45.982;8.890;2023-11-21T06:25:08;97737.38;;;5.32;94.05
49949;BME280;35840;45.982;8.890;2023-11-21T06:27:41;97731.91;;;5.40;94.12
49949;BME280;35840;45.982;8.890;2023-11-21T06:30:08;97718.09;;;5.44;92.46
49949;BME280;35840;45.982;8.890;2023-11-21T06:32:36;97742.03;;;5.59;92.12
49949;BME280;35840;45.982;8.890;2023-11-21T06:35:04;97738.88;;;5.54;91.08
49949;BME280;35840;45.982;8.890;2023-11-21T06:37:32;97753.19;;;5.56;91.16
49949;BME280;35840;45.982;8.890;2023-11-21T06:40:00;97745.41;;;5.42;90.97
49949;BME280;35840;45.982;8.890;2023-11-21T06:42:27;97739.41;;;5.25;90.57
49949;BME280;35840;45.982;8.890;2023-11-21T06:44:56;97738.34;;;4.94;92.77
49949;BME280;35840;45.982;8.890;2023-11-21T06:47:26;97741.41;;;5.01;92.58
49949;BME280;35840;45.982;8.890;2023-11-21T06:49:53;97733.28;;;5.12;92.23
49949;BME280;35840;45.982;8.890;2023-11-21T06:52:20;97740.69;;;5.16;92.16
49949;BME280;35840;45.982;8.890;2023-11-21T06:54:47;97744.00;;;5.36;91.46
49949;BME280;35840;45.982;8.890;2023-11-21T06:57:16;97742.09;;;5.40;90.62
49949;BME280;35840;45.982;8.890;2023-11-21T06:59:43;97735.56;;;5.34;89.84
49949;BME280;35840;45.982;8.890;2023-11-21T07:02:10;97735.81;;;5.12;90.20
49949;BME280;35840;45.982;8.890;2023-11-21T07:04:37;97726.88;;;5.03;90.32
49949;BME280;35840;45.982;8.890;2023-11-21T07:07:05;97741.00;;;5.10;90.66
49949;BME280;35840;45.982;8.890;2023-11-21T07:09:33;97731.31;;;5.17;91.18
49949;BME280;35840;45.982;8.890;2023-11-21T07:12:00;97719.03;;;5.08;90.88
49949;BME280;35840;45.982;8.890;2023-11-21T07:14:28;97724.94;;;5.08;90.13
49949;BME280;35840;45.982;8.890;2023-11-21T07:16:54;97728.56;;;5.22;90.34
49949;BME280;35840;45.982;8.890;2023-11-21T07:19:21;97716.69;;;5.21;89.87
49949;BME280;35840;45.982;8.890;2023-11-21T07:21:48;97725.63;;;5.29;89.86
49949;BME280;35840;45.982;8.890;2023-11-21T07:24:18;97730.56;;;5.32;90.04
49949;BME280;35840;45.982;8.890;2023-11-21T07:26:45;97718.56;;;5.17;90.10
49949;BME280;35840;45.982;8.890;2023-11-21T07:29:12;97716.78;;;5.19;90.48
49949;BME280;35840;45.982;8.890;2023-11-21T07:31:40;97719.84;;;5.08;90.18
49949;BME280;35840;45.982;8.890;2023-11-21T07:34:08;97717.53;;;5.04;91.53
49949;BME280;35840;45.982;8.890;2023-11-21T07:36:35;97715.56;;;5.09;91.63
49949;BME280;35840;45.982;8.890;2023-11-21T07:39:02;97713.31;;;5.03;91.71
49949;BME280;35840;45.982;8.890;2023-11-21T07:41:29;97711.84;;;5.16;91.74
49949;BME280;35840;45.982;8.890;2023-11-21T07:43:57;97707.09;;;5.26;91.21
49949;BME280;35840;45.982;8.890;2023-11-21T07:46:26;97702.22;;;5.21;90.99
49949;BME280;35840;45.982;8.890;2023-11-21T07:48:54;97712.88;;;5.29;90.60
49949;BME280;35840;45.982;8.890;2023-11-21T07:51:21;97706.03;;;5.30;90.85
49949;BME280;35840;45.982;8.890;2023-11-21T07:53:48;97707.53;;;5.34;90.70
49949;BME280;35840;45.982;8.890;2023-11-21T07:56:16;97698.19;;;5.17;91.38
49949;BME280;35840;45.982;8.890;2023-11-21T07:58:43;97691.31;;;5.19;91.82
49949;BME280;35840;45.982;8.890;2023-11-21T08:01:11;97697.34;;;5.34;92.70
49949;BME280;35840;45.982;8.890;2023-11-21T08:03:38;97695.97;;;5.44;92.49
49949;BME280;35840;45.982;8.890;2023-11-21T08:06:05;97684.50;;;5.53;92.29
49949;BME280;35840;45.982;8.890;2023-11-21T08:08:32;97694.38;;;5.59;91.98
49949;BME280;35840;45.982;8.890;2023-11-21T08:10:59;97680.03;;;5.74;92.36
49949;BME280;35840;45.982;8.890;2023-11-21T08:13:29;97683.84;;;5.83;93.38
49949;BME280;35840;45.982;8.890;2023-11-21T08:15:58;97669.44;;;5.82;93.13
49949;BME280;35840;45.982;8.890;2023-11-21T08:18:29;97684.00;;;5.96;92.93
49949;BME280;35840;45.982;8.890;2023-11-21T08:20:57;97676.13;;;6.00;92.51
49949;BME280;35840;45.982;8.890;2023-11-21T08:23:24;97681.00;;;6.05;92.50
49949;BME280;35840;45.982;8.890;2023-11-21T08:25:52;97670.69;;;6.07;92.81
49949;BME280;35840;45.982;8.890;2023-11-21T08:28:20;97673.41;;;6.03;94.16
49949;BME280;35840;45.982;8.890;2023-11-21T08:30:48;97667.75;;;6.14;93.82
49949;BME280;35840;45.982;8.890;2023-11-21T08:33:15;97668.00;;;6.26;94.55
49949;BME280;35840;45.982;8.890;2023-11-21T08:35:42;97663.72;;;6.26;94.96
49949;BME280;35840;45.982;8.890;2023-11-21T08:38:09;97662.25;;;6.38;94.47
49949;BME280;35840;45.982;8.890;2023-11-21T08:40:36;97667.16;;;6.41;94.35
49949;BME280;35840;45.982;8.890;2023-11-21T08:43:03;97660.72;;;6.50;93.95
49949;BME280;35840;45.982;8.890;2023-11-21T08:45:31;97663.88;;;6.55;93.06
49949;BME280;35840;45.982;8.890;2023-11-21T08:48:01;97647.72;;;6.38;94.39
49949;BME280;35840;45.982;8.890;2023-11-21T08:50:28;97644.84;;;6.45;93.80
49949;BME280;35840;45.982;8.890;2023-11-21T08:52:55;97653.47;;;6.58;92.71
49949;BME280;35840;45.982;8.890;2023-11-21T08:55:22;97635.50;;;6.60;91.79
49949;BME280;35840;45.982;8.890;2023-11-21T08:57:49;97641.03;;;6.68;91.54
49949;BME280;35840;45.982;8.890;2023-11-21T09:00:17;97635.06;;;6.67;93.88
49949;BME280;35840;45.982;8.890;2023-11-21T09:02:46;97636.38;;;6.75;93.71
49949;BME280;35840;45.982;8.890;2023-11-21T09:05:14;97611.09;;;6.70;93.59
49949;BME280;35840;45.982;8.890;2023-11-21T09:07:41;97632.72;;;6.79;93.52
49949;BME280;35840;45.982;8.890;2023-11-21T09:10:09;97636.56;;;6.86;92.55
49949;BME280;35840;45.982;8.890;2023-11-21T09:12:37;97635.03;;;6.83;92.76
49949;BME280;35840;45.982;8.890;2023-11-21T09:15:07;97633.47;;;6.81;92.79
49949;BME280;35840;45.982;8.890;2023-11-21T09:17:36;97630.94;;;6.81;92.94
49949;BME280;35840;45.982;8.890;2023-11-21T09:20:04;97616.31;;;6.83;93.54
49949;BME280;35840;45.982;8.890;2023-11-21T09:22:32;97617.69;;;6.88;94.08
49949;BME280;35840;45.982;8.890;2023-11-21T09:25:00;97613.78;;;6.97;95.55
49949;BME280;35840;45.982;8.890;2023-11-21T09:27:26;97593.19;;;7.00;95.82
49949;BME280;35840;45.982;8.890;2023-11-21T09:29:53;97603.75;;;6.94;96.09
49949;BME280;35840;45.982;8.890;2023-11-21T09:32:20;97590.78;;;6.97;96.06
49949;BME280;35840;45.982;8.890;2023-11-21T09:34:51;97593.34;;;6.97;95.44
49949;BME280;35840;45.982;8.890;2023-11-21T09:37:18;97593.34;;;6.97;95.78
49949;BME280;35840;45.982;8.890;2023-11-21T09:39:45;97589.06;;;6.98;96.04
49949;BME280;35840;45.982;8.890;2023-11-21T09:42:23;97579.84;;;7.24;98.46
49949;BME280;35840;45.982;8.890;2023-11-21T09:47:32;97584.25;;;7.36;97.77
49949;BME280;35840;45.982;8.890;2023-11-21T09:50:02;97576.56;;;7.36;96.59
49949;BME280;35840;45.982;8.890;2023-11-21T09:52:30;97572.19;;;7.38;96.27
49949;BME280;35840;45.982;8.890;2023-11-21T09:55:00;97570.75;;;7.34;96.14
49949;BME280;35840;45.982;8.890;2023-11-21T09:57:27;97549.63;;;7.31;94.79
49949;BME280;35840;45.982;8.890;2023-11-21T09:59:55;97562.59;;;7.42;94.80
49949;BME280;35840;45.982;8.890;2023-11-21T10:02:39;97554.38;;;7.51;93.84
49949;BME280;35840;45.982;8.890;2023-11-21T10:05:07;97561.66;;;7.57;92.53
49949;BME280;35840;45.982;8.890;2023-11-21T10:07:36;97543.22;;;7.52;92.03
49949;BME280;35840;45.982;8.890;2023-11-21T10:10:05;97544.03;;;7.67;92.26
49949;BME280;35840;45.982;8.890;2023-11-21T10:12:32;97533.84;;;7.80;90.14
49949;BME280;35840;45.982;8.890;2023-11-21T10:14:59;97538.06;;;7.81;90.51
49949;BME280;35840;45.982;8.890;2023-11-21T10:17:28;97512.47;;;7.81;88.21
49949;BME280;35840;45.982;8.890;2023-11-21T10:19:58;97511.88;;;7.90;90.06
49949;BME280;35840;45.982;8.890;2023-11-21T10:22:25;97520.69;;;7.99;89.81
49949;BME280;35840;45.982;8.890;2023-11-21T10:24:53;97513.97;;;7.98;89.53
49949;BME280;35840;45.982;8.890;2023-11-21T10:27:20;97511.31;;;8.00;89.13
49949;BME280;35840;45.982;8.890;2023-11-21T10:29:47;97513.13;;;7.98;88.75
49949;BME280;35840;45.982;8.890;2023-11-21T10:32:13;97500.44;;;7.96;87.56
49949;BME280;35840;45.982;8.890;2023-11-21T10:34:40;97510.88;;;7.93;87.30
49949;BME280;35840;45.982;8.890;2023-11-21T10:37:14;97497.88;;;7.96;86.74
49949;BME280;35840;45.982;8.890;2023-11-21T10:39:43;97503.53;;;8.01;85.49
49949;BME280;35840;45.982;8.890;2023-11-21T10:42:12;97492.28;;;8.04;85.14
49949;BME280;35840;45.982;8.890;2023-11-21T10:44:38;97497.81;;;8.10;84.12
49949;BME280;35840;45.982;8.890;2023-11-21T10:47:08;97492.31;;;8.17;83.19
49949;BME280;35840;45.982;8.890;2023-11-21T10:49:36;97496.44;;;8.32;82.41
49949;BME280;35840;45.982;8.890;2023-11-21T10:52:04;97478.53;;;8.45;81.30
49949;BME280;35840;45.982;8.890;2023-11-21T10:54:31;97472.47;;;8.46;81.97
49949;BME280;35840;45.982;8.890;2023-11-21T10:56:59;97476.38;;;8.65;82.38
49949;BME280;35840;45.982;8.890;2023-11-21T10:59:30;97465.75;;;8.71;82.45
49949;BME280;35840;45.982;8.890;2023-11-21T11:02:01;97477.72;;;8.83;80.90
49949;BME280;35840;45.982;8.890;2023-11-21T11:04:33;97463.06;;;8.85;80.33
49949;BME280;35840;45.982;8.890;2023-11-21T11:07:06;97454.84;;;8.93;78.10
49949;BME280;35840;45.982;8.890;2023-11-21T11:09:36;97456.91;;;8.88;78.81
49949;BME280;35840;45.982;8.890;2023-11-21T11:12:03;97446.34;;;8.92;78.35
49949;BME280;35840;45.982;8.890;2023-11-21T11:14:33;97452.97;;;9.08;74.74
49949;BME280;35840;45.982;8.890;2023-11-21T11:17:00;97448.31;;;9.26;74.72
49949;BME280;35840;45.982;8.890;2023-11-21T11:19:28;97451.38;;;9.31;72.91
49949;BME280;35840;45.982;8.890;2023-11-21T11:22:47;97447.19;;;9.30;73.78
49949;BME280;35840;45.982;8.890;2023-11-21T11:25:05;97450.84;;;9.63;74.46
49949;BME280;35840;45.982;8.890;2023-11-21T11:30:55;97436.44;;;9.73;72.76
49949;BME280;35840;45.982;8.890;2023-11-21T11:33:43;97431.97;;;9.64;72.49
49949;BME280;35840;45.982;8.890;2023-11-21T11:38:54;97416.28;;;9.80;69.83
49949;BME280;35840;45.982;8.890;2023-11-21T11:41:27;97421.94;;;9.72;70.30
49949;BME280;35840;45.982;8.890;2023-11-21T11:43:54;97404.09;;;10.06;71.04
49949;BME280;35840;45.982;8.890;2023-11-21T11:46:40;97417.88;;;10.05;71.64
49949;BME280;35840;45.982;8.890;2023-11-21T11:49:08;97411.81;;;10.17;66.91
49949;BME280;35840;45.982;8.890;2023-11-21T11:51:35;97405.09;;;10.28;68.61
49949;BME280;35840;45.982;8.890;2023-11-21T11:54:02;97403.78;;;10.22;69.60
49949;BME280;35840;45.982;8.890;2023-11-21T11:56:31;97400.72;;;10.17;69.84
49949;BME280;35840;45.982;8.890;2023-11-21T11:59:04;97399.47;;;10.23;69.39
49949;BME280;35840;45.982;8.890;2023-11-21T12:01:33;97404.28;;;10.39;71.24
49949;BME280;35840;45.982;8.890;2023-11-21T12:06:53;97389.94;;;10.59;68.74
49949;BME280;35840;45.982;8.890;2023-11-21T12:09:22;97390.66;;;10.61;72.01
49949;BME280;35840;45.982;8.890;2023-11-21T12:11:50;97386.66;;;10.57;72.83
49949;BME280;35840;45.982;8.890;2023-11-21T12:14:17;97383.63;;;10.51;74.42
49949;BME280;35840;45.982;8.890;2023-11-21T12:16:44;97383.88;;;10.48;72.37
49949;BME280;35840;45.982;8.890;2023-11-21T12:19:12;97378.97;;;10.45;71.83
49949;BME280;35840;45.982;8.890;2023-11-21T12:21:39;97388.31;;;10.46;72.33
49949;BME280;35840;45.982;8.890;2023-11-21T12:24:10;97393.34;;;10.48;73.12
49949;BME280;35840;45.982;8.890;2023-11-21T12:26:41;97380.59;;;10.46;72.14
49949;BME280;35840;45.982;8.890;2023-11-21T12:29:09;97395.53;;;10.53;71.90
49949;BME280;35840;45.982;8.890;2023-11-21T12:31:37;97390.75;;;10.59;70.91
49949;BME280;35840;45.982;8.890;2023-11-21T12:34:04;97384.22;;;10.66;71.35
49949;BME280;35840;45.982;8.890;2023-11-21T12:36:34;97394.25;;;10.70;71.56
49949;BME280;35840;45.982;8.890;2023-11-21T12:39:02;97385.72;;;10.80;71.14
49949;BME280;35840;45.982;8.890;2023-11-21T12:41:29;97387.59;;;10.78;68.23
49949;BME280;35840;45.982;8.890;2023-11-21T12:43:57;97388.50;;;10.89;68.94
49949;BME280;35840;45.982;8.890;2023-11-21T12:46:24;97383.59;;;10.97;68.17
49949;BME280;35840;45.982;8.890;2023-11-21T12:48:56;97388.06;;;10.95;69.41
49949;BME280;35840;45.982;8.890;2023-11-21T12:51:24;97385.47;;;11.06;69.92
49949;BME280;35840;45.982;8.890;2023-11-21T12:53:52;97387.19;;;11.06;68.44
49949;BME280;35840;45.982;8.890;2023-11-21T12:56:21;97390.34;;;11.09;67.63
49949;BME280;35840;45.982;8.890;2023-11-21T12:58:50;97388.25;;;11.14;66.91
49949;BME280;35840;45.982;8.890;2023-11-21T13:01:19;97393.03;;;11.19;67.10
49949;BME280;35840;45.982;8.890;2023-11-21T13:03:49;97396.19;;;11.11;66.38
49949;BME280;35840;45.982;8.890;2023-11-21T13:06:18;97379.38;;;11.18;67.58
49949;BME280;35840;45.982;8.890;2023-11-21T13:08:46;97384.72;;;11.15;67.51
49949;BME280;35840;45.982;8.890;2023-11-21T13:11:13;97397.59;;;11.15;67.56
49949;BME280;35840;45.982;8.890;2023-11-21T13:13:42;97383.44;;;11.10;65.96
49949;BME280;35840;45.982;8.890;2023-11-21T13:16:12;97398.66;;;11.24;66.45
49949;BME280;35840;45.982;8.890;2023-11-21T13:18:39;97399.22;;;11.16;67.95
49949;BME280;35840;45.982;8.890;2023-11-21T13:21:09;97398.03;;;11.32;67.86
49949;BME280;35840;45.982;8.890;2023-11-21T13:23:43;97404.44;;;11.37;67.19
49949;BME280;35840;45.982;8.890;2023-11-21T13:26:11;97405.34;;;11.48;66.91
49949;BME280;35840;45.982;8.890;2023-11-21T13:28:39;97410.16;;;11.52;67.63